createdAt,value
2022-09-09T00:00:14.571Z,100668.31
2022-09-09T00:02:43.331Z,100672.28
2022-09-09T00:05:16.261Z,100659.38
2022-09-09T00:07:47.904Z,100661.72
2022-09-09T00:10:22.897Z,100662.38
2022-09-09T00:12:56.172Z,100663.53
2022-09-09T00:15:26.021Z,100658.25
2022-09-09T00:17:56.283Z,100658.25
2022-09-09T00:20:29.950Z,100656.63
2022-09-09T00:23:00.471Z,100649.34
2022-09-09T00:25:31.935Z,100651.34
2022-09-09T00:27:59.456Z,100648.84
2022-09-09T00:30:28.327Z,100647.53
2022-09-09T00:32:59.110Z,100653.16
2022-09-09T00:35:28.692Z,100651.00
2022-09-09T00:37:58.604Z,100655.31
2022-09-09T00:40:28.907Z,100650.34
2022-09-09T00:43:06.092Z,100663.09
2022-09-09T00:45:41.759Z,100661.00
2022-09-09T00:48:12.262Z,100661.66
2022-09-09T00:50:50.247Z,100655.53
2022-09-09T00:53:23.555Z,100644.97
2022-09-09T00:55:55.733Z,100656.53
2022-09-09T00:58:24.595Z,100645.63
2022-09-09T01:00:54.434Z,100651.25
2022-09-09T01:03:25.511Z,100649.59
2022-09-09T01:05:56.727Z,100645.13
2022-09-09T01:08:39.793Z,100649.09
2022-09-09T01:11:11.714Z,100649.09
2022-09-09T01:13:41.983Z,100648.78
2022-09-09T01:16:13.208Z,100653.25
2022-09-09T01:18:43.598Z,100659.69
2022-09-09T01:21:16.484Z,100648.09
2022-09-09T01:23:52.473Z,100647.78
2022-09-09T01:26:29.016Z,100642.97
2022-09-09T01:28:59.980Z,100641.00
2022-09-09T01:31:37.426Z,100642.66
2022-09-09T01:34:11.015Z,100637.03
2022-09-09T01:36:42.662Z,100636.69
2022-09-09T01:39:10.578Z,100634.69
2022-09-09T01:41:40.169Z,100631.88
2022-09-09T01:44:11.778Z,100627.91
2022-09-09T01:46:41.225Z,100619.97
2022-09-09T01:49:15.180Z,100617.63
2022-09-09T01:51:45.136Z,100627.72
2022-09-09T01:54:15.435Z,100632.16
2022-09-09T01:56:49.252Z,100624.56
2022-09-09T01:59:26.392Z,100627.72
2022-09-09T02:02:08.511Z,100630.06
2022-09-09T02:04:39.131Z,100632.38
2022-09-09T02:07:19.471Z,100627.44
2022-09-09T02:09:49.063Z,100628.09
2022-09-09T02:12:20.666Z,100621.50
2022-09-09T02:14:57.398Z,100620.50
2022-09-09T02:17:28.800Z,100623.53
2022-09-09T02:20:05.345Z,100615.25
2022-09-09T02:22:44.962Z,100613.94
2022-09-09T02:25:16.596Z,100621.06
2022-09-09T02:27:47.549Z,100622.22
2022-09-09T02:30:15.935Z,100611.31
2022-09-09T02:32:50.731Z,100612.47
2022-09-09T02:35:21.226Z,100611.63
2022-09-09T02:37:48.788Z,100613.97
2022-09-09T02:40:17.849Z,100613.97
2022-09-09T02:42:51.557Z,100612.31
2022-09-09T02:45:25.953Z,100610.66
2022-09-09T02:48:00.654Z,100611.34
2022-09-09T02:50:34.515Z,100618.13
2022-09-09T02:53:08.571Z,100612.00
2022-09-09T02:55:41.008Z,100624.75
2022-09-09T02:58:15.501Z,100623.44
2022-09-09T03:00:43.043Z,100621.28
2022-09-09T03:03:10.926Z,100624.41
2022-09-09T03:05:39.595Z,100615.50
2022-09-09T03:08:07.468Z,100607.41
2022-09-09T03:10:35.758Z,100611.72
2022-09-09T03:13:05.290Z,100610.06
2022-09-09T03:15:41.925Z,100610.41
2022-09-09T03:18:13.568Z,100605.13
2022-09-09T03:20:42.950Z,100595.88
2022-09-09T03:23:15.497Z,100602.66
2022-09-09T03:25:48.423Z,100596.53
2022-09-09T03:28:17.290Z,100600.50
2022-09-09T03:30:46.385Z,100593.56
2022-09-09T03:33:15.996Z,100595.53
2022-09-09T03:35:48.548Z,100593.88
2022-09-09T03:38:16.812Z,100591.41
2022-09-09T03:40:50.382Z,100587.78
2022-09-09T03:43:18.111Z,100592.25
2022-09-09T03:45:49.185Z,100586.13
2022-09-09T03:48:17.262Z,100592.91
2022-09-09T03:50:48.343Z,100579.22
2022-09-09T03:53:17.025Z,100586.00
2022-09-09T03:55:46.541Z,100586.31
2022-09-09T03:58:14.644Z,100588.63
2022-09-09T04:00:43.295Z,100584.66
2022-09-09T04:03:13.313Z,100585.34
2022-09-09T04:05:43.219Z,100592.59
2022-09-09T04:08:12.405Z,100580.53
2022-09-09T04:10:39.996Z,100584.19
2022-09-09T04:13:07.764Z,100585.00
2022-09-09T04:15:36.552Z,100580.22
2022-09-09T04:18:04.563Z,100576.56
2022-09-09T04:20:33.911Z,100569.47
2022-09-09T04:23:01.584Z,100565.84
2022-09-09T04:25:30.033Z,100562.69
2022-09-09T04:27:59.053Z,100560.22
2022-09-09T04:30:28.381Z,100563.53
2022-09-09T04:32:56.074Z,100557.09
2022-09-09T04:35:24.043Z,100562.69
2022-09-09T04:37:53.087Z,100561.88
2022-09-09T04:40:20.646Z,100561.88
2022-09-09T04:42:48.939Z,100565.50
2022-09-09T04:45:16.725Z,100565.00
2022-09-09T04:47:44.531Z,100564.53
2022-09-09T04:50:13.101Z,100555.59
2022-09-09T04:52:40.611Z,100561.22
2022-09-09T04:55:10.618Z,100553.94
2022-09-09T04:57:38.222Z,100553.13
2022-09-09T05:00:06.351Z,100559.56
2022-09-09T05:02:39.162Z,100559.06
2022-09-09T05:05:07.208Z,100550.66
2022-09-09T05:07:34.882Z,100548.66
2022-09-09T05:10:04.373Z,100551.31
2022-09-09T05:12:34.166Z,100555.28
2022-09-09T05:15:02.689Z,100551.31
2022-09-09T05:17:31.533Z,100549.66
2022-09-09T05:19:59.715Z,100564.84
2022-09-09T05:22:27.380Z,100554.78
2022-09-09T05:24:55.368Z,100553.94
2022-09-09T05:27:23.490Z,100558.41
2022-09-09T05:29:53.110Z,100547.50
2022-09-09T05:32:20.638Z,100561.22
2022-09-09T05:34:50.427Z,100564.34
2022-09-09T05:37:19.279Z,100567.47
2022-09-09T05:39:47.456Z,100568.28
2022-09-09T05:42:16.802Z,100565.47
2022-09-09T05:44:45.896Z,100557.06
2022-09-09T05:47:16.187Z,100555.41
2022-09-09T05:49:44.325Z,100562.22
2022-09-09T05:52:12.081Z,100550.97
2022-09-09T05:54:41.150Z,100558.75
2022-09-09T05:57:09.423Z,100549.16
2022-09-09T05:59:37.084Z,100552.97
2022-09-09T06:02:04.866Z,100549.50
2022-09-09T06:04:38.291Z,100555.28
2022-09-09T06:07:06.542Z,100562.22
2022-09-09T06:09:34.102Z,100554.28
2022-09-09T06:12:01.664Z,100559.19
2022-09-09T06:14:33.176Z,100555.41
2022-09-09T06:17:01.498Z,100554.41
2022-09-09T06:19:31.845Z,100553.41
2022-09-09T06:22:01.947Z,100553.56
2022-09-09T06:24:32.527Z,100551.72
2022-09-09T06:27:01.755Z,100547.41
2022-09-09T06:29:33.643Z,100553.19
2022-09-09T06:32:01.756Z,100555.00
2022-09-09T06:34:29.387Z,100549.66
2022-09-09T06:36:59.678Z,100562.88
2022-09-09T06:39:34.774Z,100563.03
2022-09-09T06:42:02.410Z,100552.75
2022-09-09T06:44:45.021Z,100553.72
2022-09-09T06:47:18.580Z,100557.00
2022-09-09T06:49:48.444Z,100558.31
2022-09-09T06:52:19.226Z,100552.38
2022-09-09T06:54:49.087Z,100553.19
2022-09-09T07:00:10.431Z,100561.09
2022-09-09T07:02:40.628Z,100555.97
2022-09-09T07:05:10.412Z,100550.84
2022-09-09T07:07:39.053Z,100553.31
2022-09-09T07:10:09.502Z,100561.19
2022-09-09T07:12:38.478Z,100565.63
2022-09-09T07:15:07.016Z,100569.72
2022-09-09T07:17:34.660Z,100574.19
2022-09-09T07:20:02.931Z,100569.22
2022-09-09T07:22:30.544Z,100568.56
2022-09-09T07:24:58.423Z,100567.03
2022-09-09T07:27:28.335Z,100566.88
2022-09-09T07:29:55.860Z,100568.41
2022-09-09T07:32:23.448Z,100566.78
2022-09-09T07:34:51.579Z,100563.25
2022-09-09T07:37:19.925Z,100561.38
2022-09-09T07:39:49.029Z,100556.91
2022-09-09T07:42:18.449Z,100565.13
2022-09-09T07:44:47.417Z,100559.56
2022-09-09T07:47:17.091Z,100561.28
2022-09-09T07:49:47.807Z,100560.72
2022-09-09T07:52:20.665Z,100553.38
2022-09-09T07:54:53.324Z,100559.38
2022-09-09T07:57:21.260Z,100560.13
2022-09-09T07:59:50.356Z,100558.34
2022-09-09T08:02:18.153Z,100561.84
2022-09-09T08:04:46.490Z,100563.13
2022-09-09T08:07:17.018Z,100561.53
2022-09-09T08:09:50.251Z,100560.41
2022-09-09T08:12:22.648Z,100567.47
2022-09-09T08:14:52.404Z,100568.75
2022-09-09T08:17:20.908Z,100557.47
2022-09-09T08:19:49.035Z,100563.00
2022-09-09T08:22:22.937Z,100557.09
2022-09-09T08:24:51.347Z,100561.88
2022-09-09T08:27:19.916Z,100557.69
2022-09-09T08:29:47.456Z,100564.41
2022-09-09T08:32:17.575Z,100567.84
2022-09-09T08:34:46.750Z,100558.66
2022-09-09T08:37:18.686Z,100562.34
2022-09-09T08:39:47.087Z,100562.84
2022-09-09T08:42:26.129Z,100564.53
2022-09-09T08:45:04.388Z,100555.59
2022-09-09T08:47:39.450Z,100564.94
2022-09-09T08:50:13.595Z,100563.88
2022-09-09T08:52:46.096Z,100571.66
2022-09-09T08:55:22.773Z,100568.84
2022-09-09T08:57:52.516Z,100580.75
2022-09-09T09:00:20.243Z,100576.19
2022-09-09T09:02:56.264Z,100580.91
2022-09-09T09:05:30.209Z,100604.06
2022-09-09T09:08:07.350Z,100589.72
2022-09-09T09:10:42.617Z,100592.28
2022-09-09T09:13:15.961Z,100598.03
2022-09-09T09:15:46.379Z,100601.44
2022-09-09T09:18:16.867Z,100601.31
2022-09-09T09:20:50.463Z,100608.38
2022-09-09T09:23:23.318Z,100607.56
2022-09-09T09:25:52.565Z,100600.16
2022-09-09T09:28:24.035Z,100612.59
2022-09-09T09:30:58.757Z,100604.38
2022-09-09T09:33:30.147Z,100619.50
2022-09-09T09:36:00.698Z,100610.47
2022-09-09T09:41:19.343Z,100608.56
2022-09-09T09:43:55.525Z,100606.59
2022-09-09T09:46:26.679Z,100612.94
2022-09-09T09:49:00.898Z,100610.22
2022-09-09T09:51:30.739Z,100614.91
2022-09-09T09:54:08.561Z,100614.75
2022-09-09T09:56:36.422Z,100613.94
2022-09-09T09:59:13.300Z,100618.88
2022-09-09T10:01:52.412Z,100605.97
2022-09-09T10:04:24.552Z,100609.03
2022-09-09T10:06:54.945Z,100612.81
2022-09-09T10:09:24.294Z,100606.09
2022-09-09T10:11:57.721Z,100610.69
2022-09-09T10:14:29.615Z,100602.97
2022-09-09T10:17:04.259Z,100605.66
2022-09-09T10:19:34.596Z,100606.75
2022-09-09T10:22:10.253Z,100610.16
2022-09-09T10:24:56.897Z,100607.81
2022-09-09T10:27:27.409Z,100603.09
2022-09-09T10:30:03.268Z,100602.41
2022-09-09T10:32:38.184Z,100607.56
2022-09-09T10:35:11.183Z,100601.78
2022-09-09T10:37:47.165Z,100612.63
2022-09-09T10:40:25.573Z,100607.44
2022-09-09T10:42:53.373Z,100604.38
2022-09-09T10:45:23.300Z,100595.25
2022-09-09T10:47:58.266Z,100596.44
2022-09-09T10:51:00.722Z,100593.06
2022-09-09T10:53:38.255Z,100595.75
2022-09-09T10:56:08.554Z,100583.66
2022-09-09T10:58:40.306Z,100590.56
2022-09-09T11:01:12.023Z,100583.84
2022-09-09T11:03:42.428Z,100585.47
2022-09-09T11:06:14.802Z,100598.78
2022-09-09T11:08:42.423Z,100588.56
2022-09-09T11:11:13.022Z,100599.19
2022-09-09T11:13:45.201Z,100587.75
2022-09-09T11:16:18.454Z,100599.66
2022-09-09T11:18:48.238Z,100598.06
2022-09-09T11:21:19.510Z,100593.84
2022-09-09T11:23:50.310Z,100587.19
2022-09-09T11:26:20.809Z,100593.78
2022-09-09T11:28:55.252Z,100598.97
2022-09-09T11:31:34.899Z,100591.06
2022-09-09T11:34:20.233Z,100598.56
2022-09-09T11:36:58.043Z,100592.66
2022-09-09T11:39:38.422Z,100593.13
2022-09-09T11:42:09.880Z,100586.66
2022-09-09T11:47:05.624Z,100587.38
2022-09-09T11:49:42.644Z,100597.13
2022-09-09T11:52:15.150Z,100593.25
2022-09-09T11:54:48.518Z,100586.00
2022-09-09T11:57:25.322Z,100582.81
2022-09-09T11:59:54.076Z,100582.31
2022-09-09T12:02:24.615Z,100588.19
2022-09-09T12:04:57.205Z,100577.72
2022-09-09T12:07:31.171Z,100583.72
2022-09-09T12:10:01.774Z,100576.78
2022-09-09T12:12:34.092Z,100570.31
2022-09-09T12:15:03.140Z,100577.59
2022-09-09T12:17:32.168Z,100569.84
2022-09-09T12:20:06.366Z,100554.78
2022-09-09T12:22:40.119Z,100556.44
2022-09-09T12:25:22.608Z,100554.78
2022-09-09T12:27:59.748Z,100559.75
2022-09-09T12:30:31.368Z,100559.47
2022-09-09T12:33:02.928Z,100553.59
2022-09-09T12:35:32.073Z,100558.31
2022-09-09T12:38:03.419Z,100554.00
2022-09-09T12:40:32.492Z,100558.59
2022-09-09T12:43:01.107Z,100578.59
2022-09-09T12:45:31.192Z,100574.16
2022-09-09T12:48:01.155Z,100567.25
2022-09-09T12:50:30.360Z,100560.91
2022-09-09T12:52:59.509Z,100561.09
2022-09-09T12:55:31.131Z,100571.13
2022-09-09T12:58:00.193Z,100565.84
2022-09-09T13:00:29.017Z,100556.56
2022-09-09T13:02:57.397Z,100563.22
2022-09-09T13:05:26.016Z,100557.97
2022-09-09T13:07:53.924Z,100552.19
2022-09-09T13:10:36.266Z,100554.28
2022-09-09T13:13:06.136Z,100551.53
2022-09-09T13:15:33.785Z,100543.38
2022-09-09T13:18:04.433Z,100550.41
2022-09-09T13:20:32.102Z,100547.34
2022-09-09T13:22:59.918Z,100543.06
2022-09-09T13:25:28.727Z,100552.88
2022-09-09T13:27:58.865Z,100547.91
2022-09-09T13:30:29.597Z,100546.00
2022-09-09T13:33:07.771Z,100543.81
2022-09-09T13:35:35.553Z,100532.81
2022-09-09T13:38:09.598Z,100547.13
2022-09-09T13:40:37.863Z,100538.47
2022-09-09T13:43:06.404Z,100537.84
2022-09-09T13:45:35.833Z,100541.94
2022-09-09T13:48:11.278Z,100531.81
2022-09-09T13:50:38.879Z,100539.13
2022-09-09T13:53:06.428Z,100529.00
2022-09-09T13:55:34.019Z,100538.66
2022-09-09T13:58:02.512Z,100533.91
2022-09-09T14:00:32.135Z,100537.81
2022-09-09T14:03:02.554Z,100530.53
2022-09-09T14:05:30.418Z,100538.22
2022-09-09T14:07:59.407Z,100544.94
2022-09-09T14:10:27.049Z,100542.13
2022-09-09T14:12:54.865Z,100535.38
2022-09-09T14:15:22.868Z,100532.81
2022-09-09T14:17:50.670Z,100543.28
2022-09-09T14:20:20.331Z,100541.22
2022-09-09T14:22:47.938Z,100545.69
2022-09-09T14:25:15.743Z,100538.75
2022-09-09T14:27:43.357Z,100546.31
2022-09-09T14:30:11.435Z,100544.69
2022-09-09T14:32:38.987Z,100544.59
2022-09-09T14:35:06.761Z,100552.81
2022-09-09T14:37:35.689Z,100542.38
2022-09-09T14:40:03.578Z,100546.84
2022-09-09T14:42:31.376Z,100544.13
2022-09-09T14:44:58.879Z,100545.97
2022-09-09T14:47:27.189Z,100540.84
2022-09-09T14:49:54.902Z,100542.47
2022-09-09T14:52:22.472Z,100545.22
2022-09-09T14:54:51.534Z,100545.78
2022-09-09T14:57:19.141Z,100539.38
2022-09-09T14:59:46.841Z,100554.16
2022-09-09T15:02:15.033Z,100550.66
2022-09-09T15:04:42.587Z,100553.56
2022-09-09T15:07:11.795Z,100553.59
2022-09-09T15:09:39.320Z,100557.03
2022-09-09T15:12:08.527Z,100554.00
2022-09-09T15:14:36.197Z,100563.00
2022-09-09T15:17:03.757Z,100570.44
2022-09-09T15:19:31.309Z,100566.94
2022-09-09T15:22:00.483Z,100558.72
2022-09-09T15:24:27.971Z,100564.13
2022-09-09T15:26:55.975Z,100569.66
2022-09-09T15:29:24.913Z,100569.66
2022-09-09T15:31:52.467Z,100567.31
2022-09-09T15:34:20.429Z,100569.31
2022-09-09T15:36:48.215Z,100574.50
2022-09-09T15:39:17.273Z,100579.69
2022-09-09T15:41:45.003Z,100576.75
2022-09-09T15:44:13.201Z,100569.94
2022-09-09T15:46:43.262Z,100573.59
2022-09-09T15:49:11.790Z,100576.75
2022-09-09T15:51:44.185Z,100567.00
2022-09-09T15:54:13.082Z,100566.16
2022-09-09T15:56:40.804Z,100572.53
2022-09-09T15:59:08.400Z,100572.41
2022-09-09T16:01:36.563Z,100575.94
2022-09-09T16:04:05.900Z,100574.19
2022-09-09T16:06:34.250Z,100565.25
2022-09-09T16:09:04.077Z,100575.25
2022-09-09T16:11:32.986Z,100568.31
2022-09-09T16:14:01.191Z,100565.84
2022-09-09T16:16:30.060Z,100564.56
2022-09-09T16:18:59.199Z,100570.19
2022-09-09T16:21:30.135Z,100581.47
2022-09-09T16:23:59.252Z,100572.19
2022-09-09T16:26:26.918Z,100572.19
2022-09-09T16:28:55.140Z,100578.84
2022-09-09T16:31:23.783Z,100577.59
2022-09-09T16:33:52.182Z,100571.34
2022-09-09T16:36:21.214Z,100570.75
2022-09-09T16:38:50.279Z,100568.16
2022-09-09T16:41:17.825Z,100572.91
2022-09-09T16:43:45.416Z,100570.78
2022-09-09T16:46:14.853Z,100577.94
2022-09-09T16:48:42.452Z,100582.75
2022-09-09T16:51:15.218Z,100579.47
2022-09-09T16:53:44.043Z,100586.28
2022-09-09T16:56:14.682Z,100588.25
2022-09-09T16:58:43.887Z,100590.63
2022-09-09T17:01:12.554Z,100581.69
2022-09-09T17:03:40.068Z,100584.03
2022-09-09T17:06:10.556Z,100587.19
2022-09-09T17:08:38.084Z,100591.66
2022-09-09T17:11:05.653Z,100595.44
2022-09-09T17:13:34.973Z,100593.44
2022-09-09T17:16:05.585Z,100593.78
2022-09-09T17:18:33.246Z,100598.59
2022-09-09T17:21:04.567Z,100605.28
2022-09-09T17:23:32.195Z,100609.66
2022-09-09T17:26:00.972Z,100615.16
2022-09-09T17:28:32.040Z,100614.22
2022-09-09T17:31:02.273Z,100610.09
2022-09-09T17:33:31.793Z,100614.91
2022-09-09T17:36:00.573Z,100623.69
2022-09-09T17:38:30.217Z,100638.63
2022-09-09T17:41:04.032Z,100634.97
2022-09-09T17:43:31.771Z,100635.81
2022-09-09T17:46:08.056Z,100637.44
2022-09-09T17:48:36.078Z,100637.94
2022-09-09T17:51:03.608Z,100636.75
2022-09-09T17:53:31.724Z,100635.59
2022-09-09T17:56:03.686Z,100641.22
2022-09-09T17:58:31.320Z,100635.25
2022-09-09T18:01:03.224Z,100636.88
2022-09-09T18:03:32.095Z,100647.47
2022-09-09T18:06:03.493Z,100636.19
2022-09-09T18:08:34.737Z,100636.19
2022-09-09T18:11:04.698Z,100637.72
2022-09-09T18:13:32.235Z,100645.69
2022-09-09T18:16:00.006Z,100651.19
2022-09-09T18:18:27.627Z,100649.91
2022-09-09T18:21:02.054Z,100663.50
2022-09-09T18:23:30.062Z,100659.03
2022-09-09T18:25:59.018Z,100667.03
2022-09-09T18:28:27.430Z,100671.84
2022-09-09T18:30:55.032Z,100671.84
2022-09-09T18:33:22.619Z,100670.09
2022-09-09T18:35:50.117Z,100674.41
2022-09-09T18:38:19.053Z,100673.09
2022-09-09T18:40:46.593Z,100677.44
2022-09-09T18:43:14.324Z,100685.41
2022-09-09T18:45:41.828Z,100689.25
2022-09-09T18:48:10.130Z,100691.97
2022-09-09T18:50:37.707Z,100688.19
2022-09-09T18:53:05.216Z,100686.75
2022-09-09T18:55:34.238Z,100686.91
2022-09-09T18:58:02.710Z,100687.16
2022-09-09T19:00:30.982Z,100684.19
2022-09-09T19:02:58.617Z,100686.03
2022-09-09T19:05:27.167Z,100678.59
2022-09-09T19:07:54.795Z,100687.72
2022-09-09T19:10:22.637Z,100701.69
2022-09-09T19:12:51.592Z,100693.09
2022-09-09T19:15:19.278Z,100697.44
2022-09-09T19:17:46.879Z,100702.22
2022-09-09T19:20:16.364Z,100704.56
2022-09-09T19:22:43.836Z,100706.91
2022-09-09T19:25:11.420Z,100705.56
2022-09-09T19:27:38.922Z,100712.72
2022-09-09T19:30:08.828Z,100705.78
2022-09-09T19:32:52.616Z,100715.41
2022-09-09T19:35:20.942Z,100715.75
2022-09-09T19:37:48.599Z,100709.63
2022-09-09T19:40:17.448Z,100714.44
2022-09-09T19:42:45.017Z,100714.78
2022-09-09T19:45:13.878Z,100720.75
2022-09-09T19:47:42.766Z,100723.06
2022-09-09T19:50:10.412Z,100728.69
2022-09-09T19:52:38.846Z,100728.69
2022-09-09T19:55:06.814Z,100730.69
2022-09-09T19:57:34.328Z,100727.03
2022-09-09T20:00:02.150Z,100732.38
2022-09-09T20:02:58.020Z,100733.06
2022-09-09T20:05:32.273Z,100741.84
2022-09-09T20:07:59.749Z,100734.41
2022-09-09T20:10:27.219Z,100738.41
2022-09-09T20:12:54.729Z,100745.69
2022-09-09T20:15:22.247Z,100745.00
2022-09-09T20:17:51.098Z,100743.97
2022-09-09T20:20:19.659Z,100746.09
2022-09-09T20:22:47.257Z,100742.28
2022-09-09T20:25:15.291Z,100742.44
2022-09-09T20:27:42.754Z,100732.81
2022-09-09T20:30:10.811Z,100726.88
2022-09-09T20:32:38.365Z,100738.59
2022-09-09T20:35:08.414Z,100742.25
2022-09-09T20:37:35.975Z,100732.97
2022-09-09T20:40:03.663Z,100736.97
2022-09-09T20:42:31.291Z,100733.66
2022-09-09T20:44:58.840Z,100743.25
2022-09-09T20:47:26.471Z,100739.13
2022-09-09T20:49:54.000Z,100741.47
2022-09-09T20:52:23.592Z,100735.69
2022-09-09T20:54:51.334Z,100739.66
2022-09-09T20:57:22.036Z,100737.19
2022-09-09T20:59:50.990Z,100738.72
2022-09-09T21:02:19.130Z,100740.19
2022-09-09T21:04:47.160Z,100740.88
2022-09-09T21:07:14.631Z,100736.75
2022-09-09T21:09:43.472Z,100745.03
2022-09-09T21:12:10.945Z,100746.88
2022-09-09T21:14:38.502Z,100747.53
2022-09-09T21:17:06.090Z,100755.84
2022-09-09T21:19:33.656Z,100746.91
2022-09-09T21:22:01.155Z,100754.03
2022-09-09T21:24:29.049Z,100745.94
2022-09-09T21:26:59.464Z,100751.06
2022-09-09T21:29:26.994Z,100749.06
2022-09-09T21:31:55.731Z,100756.69
2022-09-09T21:34:23.432Z,100756.19
2022-09-09T21:36:51.025Z,100754.53
2022-09-09T21:39:18.558Z,100761.31
2022-09-09T21:41:46.804Z,100752.41
2022-09-09T21:44:15.672Z,100753.56
2022-09-09T21:46:43.814Z,100747.09
2022-09-09T21:49:11.413Z,100749.78
2022-09-09T21:51:38.917Z,100757.69
2022-09-09T21:54:07.302Z,100754.41
2022-09-09T21:56:35.718Z,100756.72
2022-09-09T21:59:04.122Z,100754.22
2022-09-09T22:01:34.035Z,100756.56
2022-09-09T22:04:01.921Z,100763.66
2022-09-09T22:06:29.514Z,100753.56
2022-09-09T22:08:57.245Z,100762.00
2022-09-09T22:11:25.313Z,100760.34
2022-09-09T22:13:54.064Z,100762.00
2022-09-09T22:16:22.466Z,100760.03
2022-09-09T22:18:55.171Z,100758.88
2022-09-09T22:21:23.100Z,100764.50
2022-09-09T22:23:54.327Z,100778.22
2022-09-09T22:26:22.044Z,100775.41
2022-09-09T22:28:49.573Z,100778.22
2022-09-09T22:31:17.093Z,100773.44
2022-09-09T22:33:44.738Z,100772.59
2022-09-09T22:36:13.693Z,100772.59
2022-09-09T22:38:41.188Z,100778.22
2022-09-09T22:41:08.644Z,100774.25
2022-09-09T22:43:36.665Z,100774.59
2022-09-09T22:46:04.841Z,100774.91
2022-09-09T22:48:33.291Z,100776.91
2022-09-09T22:51:04.452Z,100778.06
2022-09-09T22:53:33.825Z,100778.38
2022-09-09T22:56:01.911Z,100774.25
2022-09-09T22:58:31.633Z,100778.59
2022-09-09T23:00:59.653Z,100771.66
2022-09-09T23:03:27.189Z,100774.78
2022-09-09T23:05:55.765Z,100773.13
2022-09-09T23:08:23.796Z,100764.19
2022-09-09T23:10:55.779Z,100764.53
2022-09-09T23:13:24.305Z,100762.06
2022-09-09T23:15:52.265Z,100764.38
2022-09-09T23:18:20.250Z,100773.97
2022-09-09T23:21:00.477Z,100773.47
2022-09-09T23:23:28.185Z,100769.34
2022-09-09T23:25:57.001Z,100775.31
2022-09-09T23:28:24.481Z,100770.34
2022-09-09T23:30:52.021Z,100776.97
2022-09-09T23:33:19.509Z,100777.28
2022-09-09T23:35:46.998Z,100777.94
2022-09-09T23:38:15.033Z,100785.88
2022-09-09T23:40:44.029Z,100780.91
2022-09-09T23:43:12.876Z,100784.88
2022-09-09T23:45:40.359Z,100781.28
2022-09-09T23:48:07.921Z,100791.69
2022-09-09T23:50:35.425Z,100791.69
2022-09-09T23:53:03.153Z,100791.19
2022-09-09T23:55:30.731Z,100782.75
2022-09-09T23:57:58.248Z,100782.75
